Time;durP1;ratioP1;P1;durP2;ratioP2;P2;SDS_P1;SDS_P2;PMS_P1;PMS_P2;Temp;Humidity;BMP_temperature;BMP_pressure;BME280_temperature;BME280_humidity;BME280_pressure;Samples;Min_cycle;Max_cycle;Signal;HPM_P1;HPM_P2
2023/09/20 00:02:22;;;;;;;8.95;3.00;;;;;;;12.67;100.00;96666.16;5017810;28;20333;-68
2023/09/20 00:04:47;;;;;;;4.43;2.75;;;;;;;12.73;100.00;96661.88;5022678;28;20111;-69
2023/09/20 00:07:13;;;;;;;8.60;3.45;;;;;;;12.82;100.00;96663.13;5014102;28;20046;-68
2023/09/20 00:09:39;;;;;;;8.98;3.35;;;;;;;12.67;100.00;96671.63;5022366;28;20045;-68
2023/09/20 00:12:05;;;;;;;5.82;3.38;;;;;;;12.54;100.00;96671.16;5015145;28;20041;-67
2023/09/20 00:14:31;;;;;;;4.35;2.33;;;;;;;12.54;100.00;96671.94;5019386;28;20060;-69
2023/09/20 00:16:57;;;;;;;3.55;2.17;;;;;;;12.67;100.00;96666.94;5030855;28;20045;-68
2023/09/20 00:19:22;;;;;;;6.43;3.00;;;;;;;12.79;100.00;96665.84;5013845;28;20194;-69
2023/09/20 00:21:49;;;;;;;5.65;2.60;;;;;;;12.80;100.00;96667.41;5022372;28;20143;-69
2023/09/20 00:24:14;;;;;;;4.47;2.38;;;;;;;12.77;100.00;96668.19;5028231;28;20549;-68
2023/09/20 00:26:39;;;;;;;4.95;2.13;;;;;;;12.76;100.00;96672.09;5006997;28;20054;-69
2023/09/20 00:29:05;;;;;;;3.35;2.45;;;;;;;12.70;100.00;96674.41;5007055;28;23427;-68
2023/09/20 00:31:32;;;;;;;6.32;2.42;;;;;;;12.64;100.00;96667.72;5022558;28;20433;-69
2023/09/20 00:33:58;;;;;;;4.65;2.85;;;;;;;12.58;100.00;96659.00;5000681;28;20188;-68
2023/09/20 00:36:24;;;;;;;3.97;2.53;;;;;;;12.67;100.00;96666.16;4998996;28;20415;-68
2023/09/20 00:38:52;;;;;;;9.27;3.05;;;;;;;12.46;100.00;96659.31;5001136;28;20049;-69
2023/09/20 00:41:18;;;;;;;7.30;3.60;;;;;;;12.04;100.00;96661.28;4997078;28;20065;-69
2023/09/20 00:43:44;;;;;;;3.67;2.63;;;;;;;12.11;100.00;96660.56;5002238;28;20556;-69
2023/09/20 00:46:11;;;;;;;5.53;2.38;;;;;;;12.22;100.00;96650.47;5000689;28;20150;-70
2023/09/20 00:48:41;;;;;;;6.00;2.90;;;;;;;12.30;100.00;96643.09;5007342;28;20042;-68
2023/09/20 00:51:09;;;;;;;5.35;3.15;;;;;;;12.29;100.00;96647.00;4996505;28;20052;-68
2023/09/20 00:53:35;;;;;;;4.22;2.70;;;;;;;12.23;100.00;96649.31;5006137;28;20157;-70
2023/09/20 00:56:03;;;;;;;4.90;3.10;;;;;;;12.22;100.00;96649.69;5000737;28;20046;-68
2023/09/20 00:58:29;;;;;;;5.15;3.30;;;;;;;12.21;100.00;96640.66;5020976;28;20045;-68
2023/09/20 01:00:56;;;;;;;7.85;3.20;;;;;;;12.24;100.00;96641.84;5020657;28;20045;-68
2023/09/20 01:03:22;;;;;;;7.10;3.10;;;;;;;12.25;100.00;96635.19;5015558;28;21535;-68
2023/09/20 01:05:48;;;;;;;6.15;2.70;;;;;;;12.30;100.00;96640.34;5020901;28;20508;-69
2023/09/20 01:08:17;;;;;;;5.10;3.00;;;;;;;12.23;100.00;96638.31;5015737;28;20041;-69
2023/09/20 01:10:45;;;;;;;6.20;3.17;;;;;;;12.17;100.00;96639.03;5020505;28;20042;-69
2023/09/20 01:13:12;;;;;;;4.25;2.92;;;;;;;12.16;100.00;96640.22;5015344;28;20038;-70
2023/09/20 01:15:38;;;;;;;8.85;3.10;;;;;;;12.14;100.00;96629.63;5020307;28;20053;-69
2023/09/20 01:18:04;;;;;;;7.32;3.25;;;;;;;12.14;100.00;96629.63;5027827;28;20411;-67
2023/09/20 01:20:35;;;;;;;7.60;3.50;;;;;;;12.11;100.00;96629.59;5021666;28;20048;-69
2023/09/20 01:23:02;;;;;;;7.88;3.45;;;;;;;12.07;100.00;96632.28;5020409;28;20095;-69
2023/09/20 01:25:32;;;;;;;4.93;3.08;;;;;;;12.09;100.00;96629.97;5018253;28;20455;-69
2023/09/20 01:28:00;;;;;;;11.23;3.15;;;;;;;12.18;100.00;96630.44;5022533;28;20052;-69
2023/09/20 01:30:36;;;;;;;4.25;2.90;;;;;;;12.23;100.00;96624.59;5017087;28;20474;-70
2023/09/20 01:33:06;;;;;;;6.38;3.35;;;;;;;12.20;100.00;96630.84;5020374;28;20057;-69
2023/09/20 01:35:32;;;;;;;6.15;3.75;;;;;;;12.14;100.00;96629.63;5021290;28;20132;-68
2023/09/20 01:37:58;;;;;;;4.70;3.13;;;;;;;12.12;100.00;96620.97;5024522;28;20052;-69
2023/09/20 01:40:33;;;;;;;6.78;3.25;;;;;;;12.09;100.00;96629.19;5020237;28;20049;-68
2023/09/20 01:43:06;;;;;;;6.68;2.90;;;;;;;12.15;100.00;96625.69;5023110;28;20508;-68
2023/09/20 01:45:34;;;;;;;4.45;2.45;;;;;;;12.23;100.00;96618.31;5005696;28;20050;-69
2023/09/20 01:48:06;;;;;;;4.90;2.85;;;;;;;12.30;100.00;96626.63;5006014;28;20049;-69
2023/09/20 01:50:32;;;;;;;4.47;2.70;;;;;;;12.31;100.00;96613.66;5025014;28;20400;-70
2023/09/20 01:52:59;;;;;;;6.35;2.85;;;;;;;12.36;100.00;96616.84;5031970;28;20062;-68
2023/09/20 01:55:27;;;;;;;3.50;2.22;;;;;;;12.43;100.00;96616.13;5020339;28;20138;-70
2023/09/20 01:57:54;;;;;;;6.20;2.40;;;;;;;12.43;100.00;96610.63;5025451;28;20085;-68
2023/09/20 02:00:22;;;;;;;3.65;2.50;;;;;;;12.44;100.00;96609.44;5022015;28;20105;-70
2023/09/20 02:02:53;;;;;;;7.32;2.15;;;;;;;12.41;100.00;96608.25;5030181;28;20685;-69
2023/09/20 02:05:21;;;;;;;5.30;2.22;;;;;;;12.33;100.00;96609.38;5019160;28;20128;-70
2023/09/20 02:07:48;;;;;;;4.63;2.00;;;;;;;12.27;100.00;96607.38;5023640;28;20103;-69
2023/09/20 02:10:17;;;;;;;4.45;2.08;;;;;;;12.24;100.00;96606.97;5018750;28;20040;-70
2023/09/20 02:12:51;;;;;;;9.30;2.58;;;;;;;12.23;100.00;96607.34;5024110;28;20796;-69
2023/09/20 02:15:18;;;;;;;3.13;1.83;;;;;;;12.19;100.00;96599.06;5010305;28;20052;-70
2023/09/20 02:17:44;;;;;;;6.40;2.35;;;;;;;12.17;100.00;96595.94;5031892;28;20046;-70
2023/09/20 02:20:12;;;;;;;4.38;1.98;;;;;;;12.24;100.00;96603.41;5018899;28;20056;-69
2023/09/20 02:22:39;;;;;;;7.18;2.42;;;;;;;12.21;100.00;96587.72;5023496;28;20052;-69
2023/09/20 02:25:11;;;;;;;5.28;2.42;;;;;;;12.15;100.00;96589.22;5018027;28;20045;-68
2023/09/20 02:27:38;;;;;;;2.83;2.20;;;;;;;12.12;100.00;96587.22;5023882;28;20128;-69
2023/09/20 02:30:04;;;;;;;3.30;2.13;;;;;;;12.10;100.00;96587.63;5021197;28;20132;-67
2023/09/20 02:32:31;;;;;;;4.88;2.22;;;;;;;12.11;100.00;96597.41;5010623;28;20057;-68
2023/09/20 02:34:57;;;;;;;4.50;2.40;;;;;;;12.06;100.00;96589.53;5003932;28;20046;-69
2023/09/20 02:37:23;;;;;;;3.22;2.10;;;;;;;12.04;100.00;96589.13;4999565;28;20940;-69
2023/09/20 02:39:48;;;;;;;3.95;2.50;;;;;;;12.02;100.00;96584.00;5004065;28;20059;-69
2023/09/20 02:42:14;;;;;;;4.95;2.50;;;;;;;12.02;100.00;96581.25;4998881;28;20052;-69
2023/09/20 02:44:39;;;;;;;3.85;2.35;;;;;;;12.00;100.00;96585.56;5003986;28;20104;-69
2023/09/20 02:47:04;;;;;;;4.80;2.28;;;;;;;12.01;100.00;96582.44;4998228;28;20531;-67
2023/09/20 02:49:30;;;;;;;5.82;2.75;;;;;;;11.99;100.00;96582.03;5001414;28;20112;-69
2023/09/20 02:51:55;;;;;;;5.63;2.58;;;;;;;11.99;100.00;96584.78;5004561;28;20042;-69
2023/09/20 02:54:21;;;;;;;4.50;2.15;;;;;;;11.91;100.00;96588.63;4998792;28;20057;-69
2023/09/20 02:56:46;;;;;;;7.47;4.10;;;;;;;11.31;100.00;96580.50;5004282;28;20057;-69
2023/09/20 02:59:11;;;;;;;7.13;2.97;;;;;;;10.97;100.00;96580.50;4998243;28;20569;-67
2023/09/20 03:01:38;;;;;;;6.85;3.35;;;;;;;10.81;100.00;96583.44;5018640;28;20042;-69
2023/09/20 03:04:04;;;;;;;4.95;3.42;;;;;;;10.75;100.00;96582.97;4999859;28;20045;-67
2023/09/20 03:06:30;;;;;;;5.57;3.00;;;;;;;10.81;100.00;96576.00;5004567;28;20056;-67
2023/09/20 03:08:57;;;;;;;5.97;3.20;;;;;;;10.96;100.00;96576.97;5004387;28;20136;-68
2023/09/20 03:11:25;;;;;;;3.97;2.97;;;;;;;11.12;100.00;96571.28;4997738;28;20138;-69
2023/09/20 03:13:51;;;;;;;5.63;2.95;;;;;;;11.22;100.00;96570.63;5003853;28;20044;-69
2023/09/20 03:16:20;;;;;;;4.80;2.97;;;;;;;11.34;100.00;96566.84;4991325;28;20041;-69
2023/09/20 03:18:45;;;;;;;3.80;2.53;;;;;;;11.44;100.00;96571.66;5000586;28;20046;-70
2023/09/20 03:21:11;;;;;;;5.25;3.03;;;;;;;11.50;100.00;96574.06;4998729;28;20574;-68
2023/09/20 03:23:37;;;;;;;5.75;2.40;;;;;;;11.50;100.00;96577.59;5000824;28;20092;-68
2023/09/20 03:26:04;;;;;;;6.57;2.30;;;;;;;11.53;100.00;96573.34;5001206;28;20111;-67
2023/09/20 03:28:33;;;;;;;5.20;2.30;;;;;;;11.57;100.00;96571.41;5000543;28;20053;-69
2023/09/20 03:31:00;;;;;;;11.07;2.47;;;;;;;11.57;100.00;96571.41;5016553;28;20075;-68
2023/09/20 03:33:27;;;;;;;3.20;2.15;;;;;;;11.58;100.00;96570.25;5015812;28;20048;-68
2023/09/20 03:35:52;;;;;;;5.50;2.25;;;;;;;11.59;100.00;96567.09;5022623;28;20166;-68
2023/09/20 03:38:19;;;;;;;4.20;2.55;;;;;;;11.56;100.00;96569.81;5026655;28;20112;-68
2023/09/20 03:40:44;;;;;;;6.35;2.55;;;;;;;11.55;100.00;96566.28;5029478;28;20052;-69
2023/09/20 03:43:10;;;;;;;2.92;2.08;;;;;;;11.55;100.00;96571.78;5015834;28;20041;-68
2023/09/20 03:45:35;;;;;;;3.75;1.90;;;;;;;11.55;100.00;96571.00;5022534;28;20134;-68
2023/09/20 03:48:01;;;;;;;4.18;1.90;;;;;;;11.50;100.00;96565.84;5021562;28;20405;-68
2023/09/20 03:50:27;;;;;;;3.17;1.90;;;;;;;11.44;100.00;96570.88;5017775;28;20103;-69
2023/09/20 03:52:53;;;;;;;3.90;1.58;;;;;;;11.43;100.00;96575.59;5029278;28;20048;-71
2023/09/20 03:55:23;;;;;;;3.90;2.00;;;;;;;11.41;100.00;96566.91;5017363;28;20059;-69
2023/09/20 03:57:51;;;;;;;4.30;1.70;;;;;;;11.36;100.00;96572.75;5023558;28;20076;-69
2023/09/20 04:00:18;;;;;;;4.93;2.63;;;;;;;11.37;100.00;96568.06;5016096;28;20049;-69
2023/09/20 04:02:45;;;;;;;6.03;2.17;;;;;;;11.35;100.00;96573.13;5022361;28;20504;-69
2023/09/20 04:05:13;;;;;;;5.93;2.50;;;;;;;11.34;100.00;96569.59;5017741;28;20598;-69
2023/09/20 04:07:39;;;;;;;5.75;2.58;;;;;;;11.43;100.00;96569.28;5020931;28;20052;-69
2023/09/20 04:10:07;;;;;;;7.38;2.80;;;;;;;11.50;100.00;96571.34;5017291;28;20151;-68
2023/09/20 04:12:35;;;;;;;4.72;2.30;;;;;;;11.53;100.00;96557.66;5021999;28;20080;-69
2023/09/20 04:15:03;;;;;;;8.63;2.47;;;;;;;11.52;100.00;96555.28;5019558;28;20053;-69
2023/09/20 04:17:29;;;;;;;5.80;2.25;;;;;;;11.43;100.00;96556.38;5020578;28;20043;-69
2023/09/20 04:19:55;;;;;;;8.25;2.08;;;;;;;11.35;100.00;96548.47;5022181;28;20041;-68
2023/09/20 04:22:20;;;;;;;3.53;2.17;;;;;;;11.32;100.00;96554.69;5017137;28;20042;-68
2023/09/20 04:24:45;;;;;;;4.90;1.85;;;;;;;11.33;100.00;96557.06;5032167;28;20117;-70
2023/09/20 04:27:11;;;;;;;5.30;2.17;;;;;;;11.28;100.00;96557.38;5041193;28;20413;-69
2023/09/20 04:29:36;;;;;;;3.65;2.08;;;;;;;11.33;100.00;96562.53;5033685;28;20042;-68
2023/09/20 04:32:02;;;;;;;4.63;2.20;;;;;;;11.35;100.00;96559.44;5021231;28;20478;-70
2023/09/20 04:34:28;;;;;;;6.85;2.30;;;;;;;11.25;100.00;96553.44;5017986;28;20041;-69
2023/09/20 04:36:54;;;;;;;5.25;2.40;;;;;;;11.20;100.00;96558.44;5020221;28;20052;-69
2023/09/20 04:39:24;;;;;;;5.13;2.47;;;;;;;11.21;100.00;96555.34;5014192;28;20041;-69
2023/09/20 04:41:49;;;;;;;4.85;2.50;;;;;;;11.27;100.00;96561.28;5021839;28;20050;-69
2023/09/20 04:44:15;;;;;;;5.28;2.20;;;;;;;11.20;100.00;96561.19;5016830;28;20057;-69
2023/09/20 04:46:42;;;;;;;6.55;2.30;;;;;;;11.04;100.00;96558.69;5021093;28;20092;-68
2023/09/20 04:49:09;;;;;;;4.97;2.33;;;;;;;11.03;100.00;96557.09;5016021;28;20132;-67
2023/09/20 04:51:35;;;;;;;5.47;2.17;;;;;;;11.03;100.00;96551.59;5019399;28;20041;-69
2023/09/20 04:54:00;;;;;;;3.42;2.20;;;;;;;11.03;100.00;96546.91;5021857;28;20055;-69
2023/09/20 04:56:29;;;;;;;7.00;2.72;;;;;;;11.11;100.00;96547.81;5014496;28;20994;-69
2023/09/20 04:58:57;;;;;;;4.55;2.20;;;;;;;11.18;100.00;96545.16;5021451;28;20041;-70
2023/09/20 05:01:23;;;;;;;4.88;2.42;;;;;;;11.21;100.00;96549.06;5008568;28;20064;-68
2023/09/20 05:03:50;;;;;;;4.90;2.50;;;;;;;11.30;100.00;96552.31;5021284;28;20076;-69
2023/09/20 05:06:19;;;;;;;5.18;2.97;;;;;;;11.35;100.00;96553.94;5015306;28;20060;-69
2023/09/20 05:08:45;;;;;;;5.22;3.13;;;;;;;11.39;100.00;96562.97;5021484;28;20599;-70
2023/09/20 05:11:13;;;;;;;5.20;2.42;;;;;;;11.42;100.00;96562.25;5013531;28;20115;-70
2023/09/20 05:13:39;;;;;;;5.65;2.30;;;;;;;11.36;100.00;96559.06;5020980;28;20052;-67
2023/09/20 05:16:05;;;;;;;4.65;2.40;;;;;;;11.31;100.00;96559.38;5015836;28;20043;-67
2023/09/20 05:18:31;;;;;;;4.93;2.15;;;;;;;11.33;100.00;96561.75;5017623;28;20041;-70
2023/09/20 05:20:56;;;;;;;3.33;1.90;;;;;;;11.69;100.00;96557.44;5024252;28;20053;-69
2023/09/20 05:23:22;;;;;;;6.60;2.30;;;;;;;11.80;100.00;96554.78;5011971;28;20868;-69
2023/09/20 05:25:48;;;;;;;4.03;2.25;;;;;;;12.03;100.00;96554.63;5021000;28;20145;-69
2023/09/20 05:28:15;;;;;;;4.25;1.83;;;;;;;12.73;100.00;96561.00;5015500;28;20042;-68
2023/09/20 05:30:43;;;;;;;4.03;2.03;;;;;;;13.63;100.00;96560.56;5020583;28;20046;-69
2023/09/20 05:33:09;;;;;;;4.55;1.67;;;;;;;14.50;100.00;96562.97;5011692;28;20037;-69
2023/09/20 05:35:34;;;;;;;4.20;1.60;;;;;;;15.34;100.00;96566.28;5020634;28;20107;-69
2023/09/20 05:38:00;;;;;;;2.78;1.67;;;;;;;16.04;100.00;96569.06;5021824;28;20045;-70
2023/09/20 05:40:28;;;;;;;4.35;2.10;;;;;;;16.41;100.00;96565.63;5019712;28;20049;-67
2023/09/20 05:42:53;;;;;;;4.10;1.40;;;;;;;16.47;100.00;96565.19;5024443;28;20492;-70
2023/09/20 05:45:26;;;;;;;2.10;1.40;;;;;;;16.29;100.00;96565.34;5015923;28;20034;-70
2023/09/20 05:47:52;;;;;;;5.03;1.30;;;;;;;16.80;100.00;96560.91;5016765;28;20504;-69
2023/09/20 05:50:33;;;;;;;2.33;1.35;;;;;;;17.41;100.00;96565.75;5015849;28;20105;-70
2023/09/20 05:53:11;;;;;;;2.75;1.50;;;;;;;18.57;92.41;96573.97;5028942;28;20045;-69
2023/09/20 05:55:40;;;;;;;5.38;1.65;;;;;;;19.43;84.81;96569.59;5005592;28;20176;-69
2023/09/20 05:58:07;;;;;;;6.82;1.67;;;;;;;19.43;82.13;96572.38;5004065;28;20076;-67
2023/09/20 06:00:36;;;;;;;3.28;1.50;;;;;;;18.63;88.57;96565.94;5007589;28;20137;-71
2023/09/20 06:03:05;;;;;;;5.80;1.55;;;;;;;16.17;100.00;96547.25;5011486;28;20079;-70
2023/09/20 06:05:37;;;;;;;4.33;1.50;;;;;;;14.58;100.00;96540.94;5008380;28;20092;-70
2023/09/20 06:08:04;;;;;;;2.50;1.67;;;;;;;14.93;100.00;96522.72;5007587;28;20052;-68
2023/09/20 06:10:29;;;;;;;2.83;1.70;;;;;;;16.22;100.00;96516.44;5022084;28;20045;-68
2023/09/20 06:12:54;;;;;;;3.28;1.58;;;;;;;17.16;100.00;96530.91;5006870;28;20046;-69
2023/09/20 06:15:20;;;;;;;4.30;1.55;;;;;;;17.99;100.00;96535.31;5000391;28;20132;-69
2023/09/20 06:17:48;;;;;;;2.67;1.40;;;;;;;19.64;96.08;96535.03;5006197;28;20049;-69
2023/09/20 06:20:19;;;;;;;5.18;1.63;;;;;;;20.11;91.02;96541.53;5002659;28;20485;-69
2023/09/20 06:22:51;;;;;;;3.72;1.50;;;;;;;18.72;100.00;96528.13;5010548;28;20041;-69
2023/09/20 06:25:21;;;;;;;3.10;1.75;;;;;;;17.62;100.00;96512.09;5008030;28;20056;-69
2023/09/20 06:27:50;;;;;;;;;;;;;;;16.39;100.00;96507.19;5009499;28;20480;-69
2023/09/20 06:30:17;;;;;;;2.45;1.63;;;;;;;16.65;100.00;96507.72;5007122;28;19924;-69
2023/09/20 06:32:44;;;;;;;3.85;1.60;;;;;;;16.80;100.00;96517.44;5012272;28;20049;-70
2023/09/20 06:35:10;;;;;;;4.80;1.88;;;;;;;16.99;100.00;96509.75;5007357;28;20037;-69
2023/09/20 06:37:36;;;;;;;5.53;1.63;;;;;;;16.61;100.00;96504.22;5008966;28;20046;-69
2023/09/20 06:40:03;;;;;;;6.05;1.73;;;;;;;17.43;100.00;96499.72;5003426;28;20133;-68
2023/09/20 06:42:30;;;;;;;4.85;2.20;;;;;;;17.64;100.00;96504.13;5011429;28;20038;-69
2023/09/20 06:44:59;;;;;;;6.53;3.15;;;;;;;17.05;100.00;96499.81;5027319;28;20053;-69
2023/09/20 06:47:24;;;;;;;6.85;3.45;;;;;;;17.61;100.00;96509.72;5007199;28;20501;-69
2023/09/20 06:49:51;;;;;;;7.13;3.80;;;;;;;18.73;100.00;96515.81;5010507;28;20053;-69
2023/09/20 06:52:17;;;;;;;6.85;3.88;;;;;;;19.88;100.00;96518.25;4999859;28;20616;-70
2023/09/20 06:54:43;;;;;;;6.90;4.13;;;;;;;19.39;100.00;96518.09;5018145;28;20369;-70
2023/09/20 06:57:13;;;;;;;5.82;3.55;;;;;;;21.01;96.43;96520.56;5006731;28;20049;-69
2023/09/20 06:59:38;;;;;;;;;;;;;;;19.60;100.00;96517.66;5009207;28;20045;-70
2023/09/20 07:02:06;;;;;;;7.03;3.10;;;;;;;20.18;98.91;96514.34;5019718;28;20463;-68
2023/09/20 07:04:33;;;;;;;7.82;3.08;;;;;;;21.23;94.79;96517.97;5023097;28;20393;-69
2023/09/20 07:06:58;;;;;;;4.90;2.90;;;;;;;22.87;83.20;96510.41;5015070;28;20046;-69
2023/09/20 07:09:24;;;;;;;4.55;2.65;;;;;;;22.33;83.22;96515.03;5021293;28;20196;-70
2023/09/20 07:11:53;;;;;;;4.40;2.47;;;;;;;21.47;85.63;96512.91;5010161;28;20398;-69
2023/09/20 07:14:23;;;;;;;4.53;2.20;;;;;;;23.37;76.65;96513.41;5002591;28;20049;-69
2023/09/20 07:16:52;;;;;;;;;;;;;;;20.68;90.33;96501.19;5009001;28;20105;-69
2023/09/20 07:19:18;;;;;;;6.70;2.00;;;;;;;20.05;96.43;96494.78;5006046;28;19924;-69
2023/09/20 07:21:45;;;;;;;3.47;1.90;;;;;;;20.06;100.00;96490.03;5009200;28;20049;-68
2023/09/20 07:24:14;;;;;;;4.95;2.08;;;;;;;22.80;81.32;96508.63;5001274;28;20042;-68
2023/09/20 07:26:43;;;;;;;4.00;1.80;;;;;;;24.21;73.27;96504.16;5009746;28;20524;-69
2023/09/20 07:29:09;;;;;;;7.55;1.92;;;;;;;24.33;72.21;96508.88;5014299;28;20561;-69
2023/09/20 07:31:36;;;;;;;2.88;1.65;;;;;;;23.55;73.39;96513.53;5010267;28;20042;-69
2023/09/20 07:34:07;;;;;;;6.95;1.52;;;;;;;25.64;62.48;96521.63;5008397;28;20056;-66
2023/09/20 07:36:37;;;;;;;4.40;1.20;;;;;;;25.06;65.06;96529.78;5005670;28;20082;-69
2023/09/20 07:39:08;;;;;;;6.03;1.60;;;;;;;25.17;61.87;96523.72;5004758;28;20066;-69
2023/09/20 07:41:33;;;;;;;9.48;2.42;;;;;;;26.84;56.17;96526.66;5019029;28;20041;-70
2023/09/20 07:43:58;;;;;;;5.47;1.23;;;;;;;26.64;53.45;96536.47;5034458;28;20515;-70
2023/09/20 07:46:24;;;;;;;3.65;1.10;;;;;;;26.37;53.42;96539.44;5014963;28;20651;-68
2023/09/20 07:48:52;;;;;;;5.57;1.85;;;;;;;26.95;53.13;96524.06;5036173;28;20049;-69
2023/09/20 07:51:28;;;;;;;2.58;1.20;;;;;;;26.09;54.58;96528.34;5018861;28;20045;-68
2023/09/20 07:53:55;;;;;;;2.17;1.00;;;;;;;23.91;66.31;96519.75;5022461;28;20056;-69
2023/09/20 07:56:20;;;;;;;3.60;1.10;;;;;;;25.17;59.31;96529.31;5017728;28;20136;-69
2023/09/20 07:58:46;;;;;;;3.20;1.02;;;;;;;22.53;68.30;96523.91;5021645;28;20136;-68
2023/09/20 08:01:12;;;;;;;3.25;0.90;;;;;;;22.44;72.64;96515.47;5017114;28;20144;-67
2023/09/20 08:03:54;;;;;;;3.63;1.20;;;;;;;22.39;74.53;96513.22;5021965;28;20041;-70
2023/09/20 08:06:27;;;;;;;4.00;1.10;;;;;;;24.77;60.56;96511.41;5019543;28;20048;-68
2023/09/20 08:08:54;;;;;;;3.08;0.82;;;;;;;26.00;55.15;96523.56;5031337;28;20140;-69
2023/09/20 08:11:20;;;;;;;4.07;1.05;;;;;;;24.94;57.18;96525.91;5029321;28;20048;-69
2023/09/20 08:13:45;;;;;;;4.65;1.27;;;;;;;23.18;67.40;96526.50;5039864;28;20041;-69
2023/09/20 08:16:12;;;;;;;3.15;1.13;;;;;;;25.50;57.59;96520.28;5019722;28;20642;-69
2023/09/20 08:21:23;;;;;;;2.17;0.95;;;;;;;25.37;55.65;96521.22;5015809;28;22089;-70
2023/09/20 09:02:20;;;;;;;4.00;1.10;;;;;;;27.83;48.35;96513.41;5002030;28;20500;-69
2023/09/20 09:04:49;;;;;;;4.22;0.90;;;;;;;26.88;49.38;96507.59;5007333;28;20639;-69
2023/09/20 09:07:16;;;;;;;4.68;1.17;;;;;;;24.31;54.96;96499.34;4997030;28;20511;-69
2023/09/20 09:09:41;;;;;;;2.17;0.90;;;;;;;24.09;59.91;96493.88;5006243;28;20439;-69
2023/09/20 09:12:08;;;;;;;3.08;1.10;;;;;;;23.79;56.73;96496.25;4999915;28;20104;-68
2023/09/20 09:14:37;;;;;;;4.50;1.25;;;;;;;22.70;65.26;96479.09;5031593;28;20050;-69
2023/09/20 09:17:04;;;;;;;4.05;1.20;;;;;;;22.48;65.50;96465.09;5008291;28;20496;-68
2023/09/20 09:19:30;;;;;;;3.13;1.20;;;;;;;22.55;65.97;96455.72;5004409;28;20045;-69
2023/09/20 09:21:59;;;;;;;2.35;1.00;;;;;;;23.19;64.83;96467.38;5005235;28;20127;-69
2023/09/20 09:24:25;;;;;;;2.53;1.02;;;;;;;25.36;55.32;96474.03;5010303;28;20045;-68
2023/09/20 09:27:11;;;;;;;2.75;0.90;;;;;;;26.52;51.38;96478.50;5008093;28;20038;-68
2023/09/20 09:29:37;;;;;;;4.20;1.00;;;;;;;24.97;54.63;96462.56;5005641;28;20049;-69
2023/09/20 09:32:04;;;;;;;2.85;0.98;;;;;;;26.20;50.34;96472.47;5002972;28;20050;-68
2023/09/20 09:34:30;;;;;;;1.92;0.93;;;;;;;25.64;51.27;96463.53;5013251;28;20056;-69
2023/09/20 09:36:56;;;;;;;2.95;0.98;;;;;;;25.57;50.30;96469.47;5012687;28;20038;-69
2023/09/20 09:39:21;;;;;;;4.45;1.10;;;;;;;25.86;51.98;96459.69;4998162;28;20084;-69
2023/09/20 09:41:47;;;;;;;4.28;1.13;;;;;;;27.36;50.49;96462.50;5013805;28;20572;-69
2023/09/20 09:44:13;;;;;;;2.63;0.90;;;;;;;27.55;47.43;96460.28;5005054;28;20123;-70
2023/09/20 09:46:40;;;;;;;1.58;0.85;;;;;;;28.12;46.46;96458.34;5007723;28;20485;-66
2023/09/20 09:49:12;;;;;;;4.65;1.10;;;;;;;28.75;45.11;96464.28;5004249;28;20052;-69
2023/09/20 09:51:45;;;;;;;2.95;1.20;;;;;;;28.84;46.24;96454.13;4996967;28;20037;-68
2023/09/20 09:54:11;;;;;;;2.58;1.20;;;;;;;29.26;44.98;96464.88;5005736;28;20057;-67
2023/09/20 09:56:37;;;;;;;6.03;1.67;;;;;;;27.85;47.37;96460.22;5000787;28;20042;-67
2023/09/20 09:59:04;;;;;;;2.35;1.20;;;;;;;27.34;49.04;96444.59;5002795;28;20053;-69
2023/09/20 10:01:40;;;;;;;7.00;3.58;;;;;;;28.05;47.35;96439.81;5004111;28;20133;-70
2023/09/20 10:04:13;;;;;;;7.75;4.32;;;;;;;28.33;47.36;96445.81;5013047;28;20092;-69
2023/09/20 10:06:51;;;;;;;6.13;1.42;;;;;;;28.19;46.26;96444.63;5016590;28;20049;-69
2023/09/20 10:09:21;;;;;;;4.32;1.38;;;;;;;28.07;46.06;96442.91;5014385;28;20196;-70
2023/09/20 10:11:47;;;;;;;4.32;2.60;;;;;;;27.89;47.55;96432.63;5008675;28;20034;-70
2023/09/20 10:14:14;;;;;;;2.75;1.13;;;;;;;28.25;46.74;96436.25;5006634;28;20053;-69
2023/09/20 10:16:42;;;;;;;5.95;1.25;;;;;;;28.10;47.01;96435.53;5007925;28;20100;-70
2023/09/20 10:19:17;;;;;;;4.57;1.00;;;;;;;28.29;45.97;96430.41;5005047;28;20107;-70
2023/09/20 10:22:10;;;;;;;3.95;1.30;;;;;;;28.78;45.32;96428.72;5003695;28;20399;-69
2023/09/20 10:24:47;;;;;;;2.55;1.10;;;;;;;28.26;45.62;96428.59;5015400;28;20041;-69
2023/09/20 10:27:19;;;;;;;2.58;1.02;;;;;;;28.32;46.08;96424.56;5018234;28;20049;-68
2023/09/20 10:30:00;;;;;;;2.28;0.90;;;;;;;28.83;45.00;96427.22;5021590;28;20047;-67
2023/09/20 10:32:32;;;;;;;4.97;1.25;;;;;;;28.74;45.40;96422.53;5019644;28;20102;-68
2023/09/20 10:35:19;;;;;;;4.10;1.30;;;;;;;27.46;48.45;96409.78;5022823;28;20068;-67
2023/09/20 10:38:11;;;;;;;2.53;1.20;;;;;;;28.52;47.43;96406.09;5016809;28;20045;-68
2023/09/20 10:40:45;;;;;;;4.13;1.20;;;;;;;28.82;46.02;96403.13;5014377;28;20523;-67
2023/09/20 10:43:25;;;;;;;4.60;0.98;;;;;;;28.91;45.01;96403.75;5017640;28;20053;-68
2023/09/20 10:45:51;;;;;;;;;;;;;;;28.79;45.53;96399.25;5023338;28;20496;-68
2023/09/20 10:48:24;;;;;;;4.18;1.05;;;;;;;29.51;44.79;96397.63;5017196;28;20012;-67
2023/09/20 10:50:52;;;;;;;3.17;1.10;;;;;;;29.77;43.67;96417.34;5022978;28;20046;-69
2023/09/20 10:53:19;;;;;;;1.33;0.70;;;;;;;29.18;43.31;96407.34;5032706;28;20050;-69
2023/09/20 10:55:45;;;;;;;2.72;1.02;;;;;;;28.79;43.46;96400.06;5023566;28;20075;-67
2023/09/20 10:58:14;;;;;;;2.22;0.90;;;;;;;27.25;48.87;96400.44;5017730;28;20054;-69
2023/09/20 11:00:40;;;;;;;;;;;;;;;27.05;50.34;96393.47;5022398;28;20532;-69
2023/09/20 11:03:07;;;;;;;5.45;1.08;;;;;;;26.77;51.31;96383.75;5018217;28;19917;-69
2023/09/20 11:05:34;;;;;;;5.45;0.90;;;;;;;26.62;52.80;96390.13;5022517;28;20041;-68
2023/09/20 11:08:08;;;;;;;3.85;1.02;;;;;;;26.80;52.56;96383.56;5022542;28;20141;-68
2023/09/20 11:10:35;;;;;;;2.75;0.90;;;;;;;27.17;51.56;96383.22;5022599;28;20048;-68
2023/09/20 11:13:05;;;;;;;5.18;1.30;;;;;;;26.58;53.03;96385.94;5022840;28;20049;-69
2023/09/20 11:15:31;;;;;;;3.00;0.90;;;;;;;26.82;53.54;96378.25;5022275;28;20088;-68
2023/09/20 11:17:57;;;;;;;3.20;0.85;;;;;;;26.75;53.90;96375.81;5031450;28;20042;-70
2023/09/20 11:20:24;;;;;;;3.60;1.00;;;;;;;26.41;53.23;96385.63;5014481;28;20049;-69
2023/09/20 11:22:51;;;;;;;2.95;1.10;;;;;;;26.50;52.73;96371.50;5010305;28;20040;-69
2023/09/20 11:25:16;;;;;;;1.90;0.88;;;;;;;27.13;53.04;96359.34;5001905;28;20057;-70
2023/09/20 11:27:42;;;;;;;1.83;0.93;;;;;;;27.69;50.33;96360.22;5009008;28;20539;-70
2023/09/20 11:30:10;;;;;;;3.80;0.90;;;;;;;28.47;47.42;96354.09;5013501;28;20053;-68
2023/09/20 11:32:41;;;;;;;3.47;0.85;;;;;;;28.34;46.08;96364.94;5006325;28;20041;-68
2023/09/20 11:35:07;;;;;;;2.03;0.80;;;;;;;28.97;45.08;96362.31;5000499;28;20045;-69
2023/09/20 11:37:35;;;;;;;3.20;0.82;;;;;;;28.74;45.10;96361.31;5009507;28;20034;-69
2023/09/20 11:40:01;;;;;;;2.20;0.73;;;;;;;27.74;46.63;96353.91;5008707;28;20049;-68
2023/09/20 11:42:32;;;;;;;1.60;0.90;;;;;;;26.27;51.22;96348.63;5012928;28;20045;-69
2023/09/20 11:45:08;;;;;;;5.32;1.00;;;;;;;26.40;49.33;96344.75;5006882;28;20440;-69
2023/09/20 11:47:41;;;;;;;1.75;0.90;;;;;;;27.21;48.77;96338.03;5021874;28;20072;-69
2023/09/20 11:50:12;;;;;;;8.45;1.00;;;;;;;28.18;45.73;96340.94;5017739;28;20037;-69
2023/09/20 11:52:42;;;;;;;2.83;0.85;;;;;;;28.34;46.83;96340.38;5015444;28;20107;-69
2023/09/20 11:55:13;;;;;;;2.33;0.93;;;;;;;28.15;46.52;96331.44;5001537;28;20555;-68
2023/09/20 11:57:42;;;;;;;4.80;1.08;;;;;;;27.74;46.97;96330.63;5009257;28;20046;-69
2023/09/20 12:00:11;;;;;;;1.60;0.80;;;;;;;27.52;46.92;96323.44;5004387;28;20144;-69
2023/09/20 12:02:38;;;;;;;2.25;0.80;;;;;;;28.09;46.00;96330.63;5017246;28;20046;-69
2023/09/20 12:05:04;;;;;;;5.90;0.77;;;;;;;27.94;46.75;96319.41;4998272;28;20122;-68
2023/09/20 12:07:30;;;;;;;2.97;0.82;;;;;;;28.11;46.41;96316.03;5001460;28;20080;-69
2023/09/20 12:09:55;;;;;;;4.28;1.00;;;;;;;28.76;45.34;96319.31;5001693;28;20519;-69
2023/09/20 12:12:20;;;;;;;2.35;0.70;;;;;;;28.79;44.61;96317.53;5019958;28;20053;-67
2023/09/20 12:14:46;;;;;;;3.55;0.90;;;;;;;27.61;46.67;96308.47;5002025;28;20529;-66